sensor_id;sensor_type;location;lat;lon;timestamp;temperature;humidity
16253;DHT22;8234;41.480;2.306;2023-02-22T00:04:51;12.90;99.90
16253;DHT22;8234;41.480;2.306;2023-02-22T00:14:57;13.10;99.90
16253;DHT22;8234;41.480;2.306;2023-02-22T00:25:01;12.80;99.90
16253;DHT22;8234;41.480;2.306;2023-02-22T00:35:07;12.80;99.90
16253;DHT22;8234;41.480;2.306;2023-02-22T00:45:12;12.40;99.90
16253;DHT22;8234;41.480;2.306;2023-02-22T00:55:19;12.20;99.90
16253;DHT22;8234;41.480;2.306;2023-02-22T01:05:25;11.90;99.90
16253;DHT22;8234;41.480;2.306;2023-02-22T01:15:31;11.60;99.90
16253;DHT22;8234;41.480;2.306;2023-02-22T01:25:35;11.50;99.90
16253;DHT22;8234;41.480;2.306;2023-02-22T01:35:41;11.40;99.90
16253;DHT22;8234;41.480;2.306;2023-02-22T01:45:53;11.50;99.90
16253;DHT22;8234;41.480;2.306;2023-02-22T01:55:59;11.60;99.90
16253;DHT22;8234;41.480;2.306;2023-02-22T02:06:07;11.60;99.90
16253;DHT22;8234;41.480;2.306;2023-02-22T02:16:14;11.40;99.90
16253;DHT22;8234;41.480;2.306;2023-02-22T02:37:00;10.50;99.90
16253;DHT22;8234;41.480;2.306;2023-02-22T02:47:08;10.50;99.90
16253;DHT22;8234;41.480;2.306;2023-02-22T02:57:15;10.40;99.90
16253;DHT22;8234;41.480;2.306;2023-02-22T03:07:32;10.00;99.90
16253;DHT22;8234;41.480;2.306;2023-02-22T03:17:51;10.10;99.90
16253;DHT22;8234;41.480;2.306;2023-02-22T03:28:00;10.10;99.90
16253;DHT22;8234;41.480;2.306;2023-02-22T03:38:10;9.90;99.90
16253;DHT22;8234;41.480;2.306;2023-02-22T03:48:20;9.90;99.90
16253;DHT22;8234;41.480;2.306;2023-02-22T03:58:30;9.60;99.90
16253;DHT22;8234;41.480;2.306;2023-02-22T04:08:34;9.70;99.90
16253;DHT22;8234;41.480;2.306;2023-02-22T04:18:39;9.70;99.90
16253;DHT22;8234;41.480;2.306;2023-02-22T04:28:43;9.50;99.90
16253;DHT22;8234;41.480;2.306;2023-02-22T04:38:48;9.50;99.90
16253;DHT22;8234;41.480;2.306;2023-02-22T04:48:52;9.60;99.90
16253;DHT22;8234;41.480;2.306;2023-02-22T04:58:57;9.70;99.90
16253;DHT22;8234;41.480;2.306;2023-02-22T05:09:01;9.60;99.90
16253;DHT22;8234;41.480;2.306;2023-02-22T05:19:07;9.50;99.90
16253;DHT22;8234;41.480;2.306;2023-02-22T05:29:11;9.40;99.90
16253;DHT22;8234;41.480;2.306;2023-02-22T05:39:16;9.40;99.90
16253;DHT22;8234;41.480;2.306;2023-02-22T05:49:20;9.40;99.90
16253;DHT22;8234;41.480;2.306;2023-02-22T05:59:26;9.40;99.90
16253;DHT22;8234;41.480;2.306;2023-02-22T06:09:30;9.10;99.90
16253;DHT22;8234;41.480;2.306;2023-02-22T06:19:35;9.10;99.90
16253;DHT22;8234;41.480;2.306;2023-02-22T06:29:43;9.30;99.90
16253;DHT22;8234;41.480;2.306;2023-02-22T06:39:49;9.30;99.90
16253;DHT22;8234;41.480;2.306;2023-02-22T06:49:53;9.60;99.90
16253;DHT22;8234;41.480;2.306;2023-02-22T07:00:01;9.70;99.90
16253;DHT22;8234;41.480;2.306;2023-02-22T07:10:06;10.10;99.90
16253;DHT22;8234;41.480;2.306;2023-02-22T07:20:12;10.40;99.90
16253;DHT22;8234;41.480;2.306;2023-02-22T07:30:18;10.50;99.90
16253;DHT22;8234;41.480;2.306;2023-02-22T07:40:24;10.80;99.90
16253;DHT22;8234;41.480;2.306;2023-02-22T07:50:29;11.50;99.90
16253;DHT22;8234;41.480;2.306;2023-02-22T08:00:37;11.60;99.90
16253;DHT22;8234;41.480;2.306;2023-02-22T08:10:42;12.10;99.90
16253;DHT22;8234;41.480;2.306;2023-02-22T08:20:49;12.30;99.90
16253;DHT22;8234;41.480;2.306;2023-02-22T08:30:53;12.60;99.90
16253;DHT22;8234;41.480;2.306;2023-02-22T08:40:58;12.90;99.90
16253;DHT22;8234;41.480;2.306;2023-02-22T08:51:02;13.20;99.90
16253;DHT22;8234;41.480;2.306;2023-02-22T09:01:08;13.90;99.90
16253;DHT22;8234;41.480;2.306;2023-02-22T09:11:12;14.40;99.90
16253;DHT22;8234;41.480;2.306;2023-02-22T09:21:18;15.40;99.90
16253;DHT22;8234;41.480;2.306;2023-02-22T09:31:22;15.30;99.90
16253;DHT22;8234;41.480;2.306;2023-02-22T09:41:31;15.00;99.90
16253;DHT22;8234;41.480;2.306;2023-02-22T09:51:40;15.20;99.90
16253;DHT22;8234;41.480;2.306;2023-02-22T10:01:49;15.30;99.90
16253;DHT22;8234;41.480;2.306;2023-02-22T10:12:00;15.60;99.90
16253;DHT22;8234;41.480;2.306;2023-02-22T10:32:47;15.50;99.90
16253;DHT22;8234;41.480;2.306;2023-02-22T10:42:54;15.50;99.90
16253;DHT22;8234;41.480;2.306;2023-02-22T10:52:58;15.70;99.90
16253;DHT22;8234;41.480;2.306;2023-02-22T11:03:13;16.10;99.90
16253;DHT22;8234;41.480;2.306;2023-02-22T11:13:23;16.20;99.90
16253;DHT22;8234;41.480;2.306;2023-02-22T11:23:30;16.10;99.90
16253;DHT22;8234;41.480;2.306;2023-02-22T11:33:35;17.00;99.90
16253;DHT22;8234;41.480;2.306;2023-02-22T11:43:41;17.10;99.90
16253;DHT22;8234;41.480;2.306;2023-02-22T11:54:18;17.70;99.90
16253;DHT22;8234;41.480;2.306;2023-02-22T12:04:43;17.90;99.90
16253;DHT22;8234;41.480;2.306;2023-02-22T12:14:56;18.30;99.90
16253;DHT22;8234;41.480;2.306;2023-02-22T12:25:06;18.30;99.90
16253;DHT22;8234;41.480;2.306;2023-02-22T12:35:19;18.90;99.90
16253;DHT22;8234;41.480;2.306;2023-02-22T12:45:31;18.80;99.90
16253;DHT22;8234;41.480;2.306;2023-02-22T12:55:41;19.10;99.90
16253;DHT22;8234;41.480;2.306;2023-02-22T13:05:53;19.70;99.90
16253;DHT22;8234;41.480;2.306;2023-02-22T13:16:05;19.50;99.90
16253;DHT22;8234;41.480;2.306;2023-02-22T13:26:20;18.90;99.90
16253;DHT22;8234;41.480;2.306;2023-02-22T13:36:35;19.20;99.90
16253;DHT22;8234;41.480;2.306;2023-02-22T13:47:06;19.50;99.90
16253;DHT22;8234;41.480;2.306;2023-02-22T13:57:20;20.30;99.90
16253;DHT22;8234;41.480;2.306;2023-02-22T14:07:56;20.10;99.90
16253;DHT22;8234;41.480;2.306;2023-02-22T14:18:00;20.60;99.90
16253;DHT22;8234;41.480;2.306;2023-02-22T14:28:07;20.20;99.90
16253;DHT22;8234;41.480;2.306;2023-02-22T14:38:17;20.70;99.90
16253;DHT22;8234;41.480;2.306;2023-02-22T14:48:27;20.90;99.90
16253;DHT22;8234;41.480;2.306;2023-02-22T14:58:42;20.30;99.90
16253;DHT22;8234;41.480;2.306;2023-02-22T15:09:04;20.20;99.90
16253;DHT22;8234;41.480;2.306;2023-02-22T15:19:10;20.10;99.90
16253;DHT22;8234;41.480;2.306;2023-02-22T15:29:18;19.60;99.90
16253;DHT22;8234;41.480;2.306;2023-02-22T15:39:28;19.10;99.90
16253;DHT22;8234;41.480;2.306;2023-02-22T15:49:40;18.70;99.90
16253;DHT22;8234;41.480;2.306;2023-02-22T15:59:48;18.00;99.90
16253;DHT22;8234;41.480;2.306;2023-02-22T16:09:56;17.90;99.90
16253;DHT22;8234;41.480;2.306;2023-02-22T16:20:01;17.00;99.90
16253;DHT22;8234;41.480;2.306;2023-02-22T16:30:23;16.70;99.90
16253;DHT22;8234;41.480;2.306;2023-02-22T16:40:29;16.40;99.90
16253;DHT22;8234;41.480;2.306;2023-02-22T16:50:37;15.90;99.90
16253;DHT22;8234;41.480;2.306;2023-02-22T17:00:41;15.50;99.90
16253;DHT22;8234;41.480;2.306;2023-02-22T17:10:47;15.30;99.90
16253;DHT22;8234;41.480;2.306;2023-02-22T17:20:53;15.10;99.90
16253;DHT22;8234;41.480;2.306;2023-02-22T17:30:59;14.90;99.90
16253;DHT22;8234;41.480;2.306;2023-02-22T17:41:06;14.80;99.90
16253;DHT22;8234;41.480;2.306;2023-02-22T17:51:11;14.60;99.90
16253;DHT22;8234;41.480;2.306;2023-02-22T18:01:19;14.40;99.90
16253;DHT22;8234;41.480;2.306;2023-02-22T18:11:28;14.40;99.90
16253;DHT22;8234;41.480;2.306;2023-02-22T18:21:34;14.30;99.90
16253;DHT22;8234;41.480;2.306;2023-02-22T18:31:41;14.00;99.90
16253;DHT22;8234;41.480;2.306;2023-02-22T18:41:46;14.00;99.90
16253;DHT22;8234;41.480;2.306;2023-02-22T18:51:52;13.70;99.90
16253;DHT22;8234;41.480;2.306;2023-02-22T19:01:56;13.80;99.90
16253;DHT22;8234;41.480;2.306;2023-02-22T19:12:12;13.40;99.90
16253;DHT22;8234;41.480;2.306;2023-02-22T19:22:43;13.20;99.90
16253;DHT22;8234;41.480;2.306;2023-02-22T19:32:52;13.00;99.90
16253;DHT22;8234;41.480;2.306;2023-02-22T19:42:56;12.70;99.90
16253;DHT22;8234;41.480;2.306;2023-02-22T19:53:01;12.70;99.90
16253;DHT22;8234;41.480;2.306;2023-02-22T20:03:07;12.90;99.90
16253;DHT22;8234;41.480;2.306;2023-02-22T20:13:16;12.70;99.90
16253;DHT22;8234;41.480;2.306;2023-02-22T20:23:19;12.50;99.90
16253;DHT22;8234;41.480;2.306;2023-02-22T20:33:25;12.20;99.90
16253;DHT22;8234;41.480;2.306;2023-02-22T20:43:29;11.80;99.90
16253;DHT22;8234;41.480;2.306;2023-02-22T20:53:35;11.50;99.90
16253;DHT22;8234;41.480;2.306;2023-02-22T21:03:40;11.50;99.90
16253;DHT22;8234;41.480;2.306;2023-02-22T21:13:46;11.20;99.90
16253;DHT22;8234;41.480;2.306;2023-02-22T21:23:51;11.20;99.90
16253;DHT22;8234;41.480;2.306;2023-02-22T21:33:57;10.90;99.90
16253;DHT22;8234;41.480;2.306;2023-02-22T21:44:01;11.20;99.90
16253;DHT22;8234;41.480;2.306;2023-02-22T21:54:08;11.20;99.90
16253;DHT22;8234;41.480;2.306;2023-02-22T22:04:14;11.00;99.90
16253;DHT22;8234;41.480;2.306;2023-02-22T22:14:23;11.00;99.90
16253;DHT22;8234;41.480;2.306;2023-02-22T22:24:27;11.10;99.90
16253;DHT22;8234;41.480;2.306;2023-02-22T22:34:34;11.10;99.90
16253;DHT22;8234;41.480;2.306;2023-02-22T22:44:39;11.20;99.90
16253;DHT22;8234;41.480;2.306;2023-02-22T22:54:45;11.20;99.90
16253;DHT22;8234;41.480;2.306;2023-02-22T23:04:51;11.20;99.90
16253;DHT22;8234;41.480;2.306;2023-02-22T23:14:57;11.40;99.90
16253;DHT22;8234;41.480;2.306;2023-02-22T23:25:01;11.30;99.90
16253;DHT22;8234;41.480;2.306;2023-02-22T23:35:07;11.30;99.90
16253;DHT22;8234;41.480;2.306;2023-02-22T23:45:12;11.60;99.90
16253;DHT22;8234;41.480;2.306;2023-02-22T23:55:26;11.30;99.90
